Time;durP1;ratioP1;P1;durP2;ratioP2;P2;SDS_P1;SDS_P2;PMS_P1;PMS_P2;Temp;Humidity;BMP_temperature;BMP_pressure;BME280_temperature;BME280_humidity;BME280_pressure;Samples;Min_cycle;Max_cycle;Signal;HPM_P1;HPM_P2
2023/03/30 00:01:02;;;;;;;10.43;6.70;;;11.30;99.90;;;;;;4980772;28;20444;-68
2023/03/30 00:03:28;;;;;;;10.70;5.97;;;11.40;99.90;;;;;;4964182;28;20484;-67
2023/03/30 00:05:57;;;;;;;11.82;5.75;;;11.30;99.90;;;;;;4975828;28;20076;-67
2023/03/30 00:08:27;;;;;;;10.02;4.80;;;11.40;99.90;;;;;;4976125;28;20054;-68
2023/03/30 00:11:04;;;;;;;8.45;5.25;;;11.40;99.90;;;;;;4983254;28;20050;-68
2023/03/30 00:13:31;;;;;;;8.30;5.05;;;11.40;99.90;;;;;;4980366;28;20791;-67
2023/03/30 00:15:57;;;;;;;8.77;4.38;;;11.40;99.90;;;;;;4974507;28;20050;-67
2023/03/30 00:18:22;;;;;;;10.23;5.07;;;11.50;99.90;;;;;;4986678;28;20504;-68
2023/03/30 00:20:49;;;;;;;7.47;4.67;;;11.50;99.90;;;;;;4987396;28;20038;-68
2023/03/30 00:23:17;;;;;;;10.05;4.50;;;11.60;99.90;;;;;;4985645;28;20353;-68
2023/03/30 00:25:44;;;;;;;8.18;4.13;;;11.70;99.90;;;;;;4970081;28;20063;-67
2023/03/30 00:28:10;;;;;;;;;;;11.60;99.90;;;;;;4975970;28;20053;-67
2023/03/30 00:30:36;;;;;;;7.53;4.45;;;11.70;99.90;;;;;;4984356;28;20327;-67
2023/03/30 00:33:02;;;;;;;8.25;4.40;;;11.70;99.90;;;;;;4982490;28;20117;-67
2023/03/30 00:35:29;;;;;;;;;;;11.80;99.90;;;;;;4979349;28;20038;-67
2023/03/30 00:38:02;;;;;;;9.00;4.40;;;11.80;99.90;;;;;;4972619;28;20348;-68
2023/03/30 00:40:29;;;;;;;10.02;4.70;;;11.80;99.90;;;;;;4997624;28;20970;-68
2023/03/30 00:43:03;;;;;;;11.13;4.45;;;11.80;99.90;;;;;;4980500;28;20384;-68
2023/03/30 00:45:34;;;;;;;10.38;4.45;;;11.80;99.90;;;;;;4971033;28;20221;-68
2023/03/30 00:48:07;;;;;;;11.90;4.10;;;11.90;99.90;;;;;;4982696;28;20216;-67
2023/03/30 00:50:43;;;;;;;12.07;4.38;;;11.90;99.90;;;;;;4968144;28;20447;-68
2023/03/30 00:53:32;;;;;;;10.30;4.45;;;11.90;99.90;;;;;;4995731;28;20069;-67
2023/03/30 00:55:58;;;;;;;10.05;4.72;;;11.90;99.90;;;;;;4982190;28;20144;-67
2023/03/30 00:58:24;;;;;;;;;;;11.90;99.90;;;;;;4984419;28;20034;-67
2023/03/30 01:00:50;;;;;;;9.98;3.67;;;11.90;99.90;;;;;;4990494;28;20294;-67
2023/03/30 01:03:38;;;;;;;8.30;4.10;;;11.90;99.90;;;;;;4981787;28;20077;-68
2023/03/30 01:06:06;;;;;;;9.48;4.20;;;11.90;99.90;;;;;;4993914;28;20148;-68
2023/03/30 01:08:36;;;;;;;8.63;4.07;;;12.00;99.90;;;;;;4976719;28;20289;-68
2023/03/30 01:11:04;;;;;;;10.95;3.88;;;12.00;99.90;;;;;;4979029;28;20038;-68
2023/03/30 01:13:32;;;;;;;9.82;4.53;;;12.00;99.90;;;;;;4980718;28;20050;-67
2023/03/30 01:16:12;;;;;;;9.32;3.85;;;12.00;99.90;;;;;;4975592;28;20385;-67
2023/03/30 01:18:54;;;;;;;11.80;4.10;;;12.00;99.90;;;;;;4996051;28;20459;-68
2023/03/30 01:21:28;;;;;;;6.75;3.83;;;12.00;99.90;;;;;;4965099;28;20181;-67
2023/03/30 01:24:29;;;;;;;8.00;4.10;;;12.00;99.90;;;;;;4992627;28;20496;-68
2023/03/30 01:27:10;;;;;;;6.38;3.35;;;12.00;99.90;;;;;;4976859;28;20058;-67
2023/03/30 01:29:45;;;;;;;9.63;4.18;;;12.00;99.90;;;;;;4979302;28;20047;-67
2023/03/30 01:32:40;;;;;;;7.47;3.95;;;12.00;99.90;;;;;;4962983;28;20132;-68
2023/03/30 01:35:31;;;;;;;9.30;4.00;;;11.90;99.90;;;;;;4963997;28;20053;-67
2023/03/30 01:38:25;;;;;;;9.65;3.88;;;12.00;99.90;;;;;;4998298;28;20101;-68
2023/03/30 01:41:10;;;;;;;6.57;3.95;;;12.00;99.90;;;;;;5035263;23;20045;-82
2023/03/30 01:44:10;;;;;;;5.90;3.25;;;11.90;99.90;;;;;;4987065;28;20061;-82
2023/03/30 01:46:43;;;;;;;5.95;3.35;;;11.90;99.90;;;;;;4974544;28;20100;-84
2023/03/30 01:49:38;;;;;;;6.80;3.67;;;11.90;99.90;;;;;;5029929;28;20048;-83
2023/03/30 01:52:35;;;;;;;7.95;3.75;;;11.80;99.90;;;;;;5027592;28;20061;-83
2023/03/30 01:55:24;;;;;;;10.45;3.17;;;11.80;99.90;;;;;;5031547;28;20045;-83
2023/03/30 01:58:19;;;;;;;7.13;3.03;;;11.90;99.90;;;;;;5013005;28;20057;-84
2023/03/30 02:00:49;;;;;;;7.18;2.72;;;11.90;99.90;;;;;;5007415;28;20133;-84
2023/03/30 02:03:40;;;;;;;7.72;2.83;;;12.00;99.90;;;;;;4990636;28;20037;-82
2023/03/30 02:06:14;;;;;;;5.90;3.30;;;11.90;99.90;;;;;;5008379;28;20124;-85
2023/03/30 02:08:41;;;;;;;9.07;2.90;;;12.00;99.90;;;;;;5006399;28;20042;-84
2023/03/30 02:11:17;;;;;;;5.57;2.80;;;12.00;99.90;;;;;;5024504;28;20481;-82
2023/03/30 02:13:46;;;;;;;5.25;2.67;;;12.00;99.90;;;;;;5013403;28;20045;-84
2023/03/30 02:16:16;;;;;;;6.90;2.85;;;12.00;99.90;;;;;;5007930;28;20077;-83
2023/03/30 02:18:42;;;;;;;7.18;3.28;;;12.00;99.90;;;;;;5010201;28;20034;-84
2023/03/30 02:21:11;;;;;;;16.17;3.00;;;12.00;99.90;;;;;;4991494;28;20029;-83
2023/03/30 02:23:41;;;;;;;8.35;2.80;;;11.90;99.90;;;;;;5012043;28;20191;-85
2023/03/30 02:26:08;;;;;;;7.70;3.13;;;12.00;99.90;;;;;;5010369;28;20313;-84
2023/03/30 02:28:39;;;;;;;6.95;2.50;;;11.90;99.90;;;;;;4998520;28;20255;-84
2023/03/30 02:31:12;;;;;;;7.63;2.45;;;11.90;99.90;;;;;;5029912;28;20519;-84
2023/03/30 02:33:55;;;;;;;12.40;3.10;;;11.90;99.90;;;;;;5011662;28;20041;-84
2023/03/30 02:37:06;;;;;;;7.07;2.50;;;11.90;99.90;;;;;;4991140;28;20049;-84
2023/03/30 02:40:13;;;;;;;11.80;2.63;;;11.80;99.90;;;;;;5000296;28;20052;-83
2023/03/30 02:42:50;;;;;;;9.30;2.80;;;11.80;99.90;;;;;;4964228;28;20042;-84
2023/03/30 02:45:49;;;;;;;4.95;2.20;;;11.90;99.90;;;;;;4981980;28;20053;-84
2023/03/30 02:48:35;;;;;;;6.05;2.55;;;11.90;99.90;;;;;;4997194;28;20049;-83
2023/03/30 02:51:38;;;;;;;6.18;2.15;;;11.90;99.90;;;;;;5003758;28;20041;-84
2023/03/30 02:54:31;;;;;;;3.88;1.77;;;11.90;99.90;;;;;;5008808;28;20314;-84
2023/03/30 02:57:05;;;;;;;6.35;2.20;;;12.00;99.90;;;;;;5025786;28;20122;-85
2023/03/30 02:59:42;;;;;;;10.25;2.28;;;12.10;99.90;;;;;;5010072;28;20046;-85
2023/03/30 03:02:34;;;;;;;7.35;2.20;;;12.10;99.90;;;;;;5005219;28;20049;-84
2023/03/30 03:05:05;;;;;;;7.05;1.90;;;12.20;99.90;;;;;;4989035;28;20508;-84
2023/03/30 03:07:33;;;;;;;8.75;2.63;;;12.10;99.90;;;;;;5009139;28;20124;-84
2023/03/30 03:10:05;;;;;;;6.03;2.00;;;12.20;99.90;;;;;;5010243;28;20044;-83
2023/03/30 03:12:34;;;;;;;6.30;1.90;;;12.20;99.90;;;;;;4993940;28;20033;-84
2023/03/30 03:15:11;;;;;;;6.05;2.13;;;12.20;99.90;;;;;;4994736;28;20045;-85
2023/03/30 03:17:37;;;;;;;8.15;2.20;;;12.10;99.90;;;;;;5015121;28;20105;-83
2023/03/30 03:20:11;;;;;;;;;;;12.00;99.90;;;;;;4993572;28;20716;-84
2023/03/30 03:22:37;;;;;;;6.45;1.73;;;12.10;99.90;;;;;;5011947;28;19921;-84
2023/03/30 03:25:04;;;;;;;6.00;1.83;;;12.00;99.90;;;;;;4991159;28;20075;-84
2023/03/30 03:27:32;;;;;;;4.22;1.85;;;12.00;99.90;;;;;;4993207;28;20037;-84
2023/03/30 03:30:04;;;;;;;4.85;2.22;;;11.90;99.90;;;;;;4995109;28;20045;-84
2023/03/30 03:32:30;;;;;;;9.20;2.70;;;12.00;99.90;;;;;;4993735;28;20042;-84
2023/03/30 03:34:58;;;;;;;5.63;2.22;;;12.00;99.90;;;;;;4992542;28;20457;-84
2023/03/30 03:37:24;;;;;;;4.68;2.13;;;12.00;99.90;;;;;;5007886;28;20073;-84
2023/03/30 03:39:51;;;;;;;4.03;1.50;;;12.00;99.90;;;;;;5010856;28;20045;-85
2023/03/30 03:42:16;;;;;;;8.73;2.67;;;12.00;99.90;;;;;;4991630;28;20414;-84
2023/03/30 03:44:47;;;;;;;10.98;2.53;;;12.00;99.90;;;;;;5011104;28;20046;-84
2023/03/30 03:47:16;;;;;;;6.90;2.15;;;12.00;99.90;;;;;;5004306;28;20102;-84
2023/03/30 03:49:52;;;;;;;12.10;1.73;;;12.00;99.90;;;;;;5006261;28;20457;-84
2023/03/30 03:52:17;;;;;;;7.75;1.75;;;12.00;99.90;;;;;;5007226;28;20153;-84
2023/03/30 03:54:49;;;;;;;4.60;1.60;;;12.00;99.90;;;;;;5009854;28;20125;-84
2023/03/30 03:57:18;;;;;;;4.30;1.92;;;12.00;99.90;;;;;;5014882;28;20209;-84
2023/03/30 03:59:51;;;;;;;4.85;1.83;;;11.90;99.90;;;;;;5032746;28;20045;-84
2023/03/30 04:02:20;;;;;;;3.88;1.65;;;12.00;99.90;;;;;;4995558;28;20029;-82
2023/03/30 04:04:49;;;;;;;9.95;1.90;;;11.90;99.90;;;;;;4996672;28;20526;-84
2023/03/30 04:07:14;;;;;;;7.63;1.70;;;12.00;99.90;;;;;;5012408;28;20056;-83
2023/03/30 04:09:40;;;;;;;5.37;1.60;;;12.00;99.90;;;;;;5026329;28;20045;-85
2023/03/30 04:12:06;;;;;;;13.60;2.03;;;12.00;99.90;;;;;;5023163;28;20290;-85
2023/03/30 04:14:34;;;;;;;3.00;1.40;;;12.00;99.90;;;;;;4997907;28;20163;-84
2023/03/30 04:17:03;;;;;;;8.27;1.83;;;11.90;99.90;;;;;;5004673;28;20129;-84
2023/03/30 04:19:31;;;;;;;6.22;1.60;;;12.00;99.90;;;;;;5004494;28;20053;-83
2023/03/30 04:22:07;;;;;;;;;;;;;;;;;;;;;
2023/03/30 04:24:36;;;;;;;5.38;1.52;;;11.90;99.90;;;;;;5013364;28;20037;-84
2023/03/30 04:27:04;;;;;;;3.92;1.38;;;11.90;99.90;;;;;;5013584;28;20067;-83
2023/03/30 04:29:43;;;;;;;5.45;1.67;;;11.90;99.90;;;;;;4994275;28;20472;-84
2023/03/30 04:32:11;;;;;;;5.15;1.58;;;12.00;99.90;;;;;;5021553;28;20037;-84
2023/03/30 04:34:45;;;;;;;6.05;1.40;;;12.00;99.90;;;;;;5009283;28;20171;-82
2023/03/30 04:37:17;;;;;;;3.05;1.60;;;12.00;99.90;;;;;;5009613;28;20118;-82
2023/03/30 04:39:45;;;;;;;4.85;1.42;;;12.00;99.90;;;;;;5012192;28;20050;-82
2023/03/30 04:42:21;;;;;;;7.88;2.05;;;12.10;99.90;;;;;;5011013;28;20045;-83
2023/03/30 04:44:47;;;;;;;6.93;1.35;;;12.10;99.90;;;;;;5027046;28;20115;-83
2023/03/30 04:47:15;;;;;;;7.40;1.60;;;12.10;99.90;;;;;;5006532;28;20524;-83
2023/03/30 04:49:41;;;;;;;7.10;1.35;;;12.10;99.90;;;;;;5006779;28;20322;-83
2023/03/30 04:52:09;;;;;;;7.73;1.53;;;12.20;99.90;;;;;;5009995;28;20072;-82
2023/03/30 04:54:42;;;;;;;6.00;1.48;;;12.10;99.90;;;;;;5007376;28;20887;-84
2023/03/30 04:57:07;;;;;;;9.70;1.83;;;12.10;99.90;;;;;;5006660;28;20475;-83
2023/03/30 04:59:36;;;;;;;7.45;1.70;;;12.10;99.90;;;;;;5021418;28;20029;-84
2023/03/30 05:02:11;;;;;;;4.20;1.53;;;12.20;99.90;;;;;;5005764;28;20076;-84
2023/03/30 05:04:41;;;;;;;5.78;1.58;;;12.20;99.90;;;;;;5009897;28;20052;-83
2023/03/30 05:07:09;;;;;;;6.18;2.00;;;12.20;99.90;;;;;;4996916;28;20453;-84
2023/03/30 05:09:37;;;;;;;6.80;1.60;;;12.20;99.90;;;;;;4991314;28;20107;-85
2023/03/30 05:12:03;;;;;;;12.18;1.42;;;12.30;99.90;;;;;;4990163;28;20198;-84
2023/03/30 05:14:32;;;;;;;5.15;1.73;;;12.30;99.90;;;;;;4993194;28;20299;-84
2023/03/30 05:16:58;;;;;;;14.73;1.80;;;12.20;99.90;;;;;;4992029;28;20085;-84
2023/03/30 05:19:26;;;;;;;7.05;1.90;;;12.20;99.90;;;;;;5026267;28;20072;-84
2023/03/30 05:21:57;;;;;;;7.47;2.10;;;12.30;99.90;;;;;;5002662;28;20064;-84
2023/03/30 05:24:23;;;;;;;7.78;1.67;;;12.30;99.90;;;;;;5018715;28;20038;-84
2023/03/30 05:26:55;;;;;;;5.67;1.70;;;12.40;99.90;;;;;;5010190;28;20099;-83
2023/03/30 05:29:20;;;;;;;8.15;1.77;;;12.30;99.90;;;;;;4990013;28;20042;-84
2023/03/30 05:31:48;;;;;;;6.80;1.40;;;12.30;99.90;;;;;;4989477;28;20052;-84
2023/03/30 05:34:30;;;;;;;;;;;;;;;;;;;;;
2023/03/30 05:37:04;;;;;;;7.57;1.50;;;12.20;99.90;;;;;;5006806;28;20081;-84
2023/03/30 05:39:35;;;;;;;4.93;1.70;;;12.20;99.90;;;;;;5005577;28;20044;-83
2023/03/30 05:42:01;;;;;;;7.55;1.58;;;12.20;99.90;;;;;;5008623;28;20523;-84
2023/03/30 05:44:34;;;;;;;7.90;1.60;;;12.20;99.90;;;;;;4993975;28;20868;-84
2023/03/30 05:47:02;;;;;;;4.10;1.85;;;12.20;99.90;;;;;;5007965;28;20606;-83
2023/03/30 05:49:28;;;;;;;6.25;2.05;;;12.20;99.90;;;;;;5026771;28;20120;-87
2023/03/30 05:51:56;;;;;;;6.67;1.60;;;12.30;99.90;;;;;;5008083;28;20073;-83
2023/03/30 05:54:21;;;;;;;9.15;2.10;;;12.30;99.90;;;;;;4990734;28;20042;-82
2023/03/30 05:56:47;;;;;;;5.67;2.03;;;12.20;99.90;;;;;;5021951;28;20526;-84
2023/03/30 05:59:20;;;;;;;5.95;1.77;;;12.20;99.90;;;;;;5023124;28;20098;-84
2023/03/30 06:01:46;;;;;;;4.68;1.38;;;12.10;99.90;;;;;;4986557;28;20107;-84
2023/03/30 06:04:14;;;;;;;5.93;1.75;;;12.20;99.90;;;;;;4989135;28;20611;-84
2023/03/30 06:06:40;;;;;;;3.35;2.00;;;12.10;99.90;;;;;;5006375;28;20545;-84
2023/03/30 06:09:09;;;;;;;5.20;2.40;;;12.20;99.90;;;;;;4990529;28;20037;-84
2023/03/30 06:11:35;;;;;;;6.80;2.53;;;12.20;99.90;;;;;;4992752;28;20053;-84
2023/03/30 06:14:03;;;;;;;6.00;1.60;;;12.20;99.90;;;;;;5006705;28;20528;-83
2023/03/30 06:16:31;;;;;;;6.38;1.42;;;12.20;99.90;;;;;;4990772;28;20049;-84
2023/03/30 06:19:06;;;;;;;6.75;1.90;;;12.30;99.90;;;;;;4993812;28;20065;-84
2023/03/30 06:21:31;;;;;;;6.20;2.00;;;12.30;99.90;;;;;;5006865;28;20174;-85
2023/03/30 06:24:06;;;;;;;11.30;2.07;;;12.30;99.90;;;;;;5008334;28;20445;-84
2023/03/30 06:26:47;;;;;;;8.10;2.08;;;12.30;99.90;;;;;;5013551;28;20427;-82
2023/03/30 06:29:13;;;;;;;10.82;2.20;;;12.30;99.90;;;;;;5009386;28;20046;-84
2023/03/30 06:31:42;;;;;;;6.57;2.05;;;12.30;99.90;;;;;;4993121;28;20045;-84
2023/03/30 06:34:10;;;;;;;5.95;1.95;;;12.20;99.90;;;;;;5013384;28;20132;-86
2023/03/30 06:36:41;;;;;;;10.05;2.08;;;12.30;99.90;;;;;;5011587;28;20049;-84
2023/03/30 06:39:08;;;;;;;9.20;1.60;;;12.30;99.90;;;;;;4996269;28;20040;-85
2023/03/30 06:41:38;;;;;;;4.55;1.80;;;12.30;99.90;;;;;;5027549;28;20436;-85
2023/03/30 06:44:13;;;;;;;7.60;1.73;;;12.20;99.90;;;;;;5011211;28;20055;-81
2023/03/30 06:46:40;;;;;;;15.02;2.00;;;12.30;99.90;;;;;;5009077;28;20088;-84
2023/03/30 06:49:06;;;;;;;6.90;1.60;;;12.20;99.90;;;;;;5018345;28;20673;-83
2023/03/30 06:51:35;;;;;;;10.90;1.65;;;12.20;99.90;;;;;;5012327;28;20044;-84
2023/03/30 06:54:01;;;;;;;7.05;1.67;;;12.30;99.90;;;;;;5007392;28;20052;-84
2023/03/30 06:56:35;;;;;;;10.40;2.20;;;12.30;99.90;;;;;;5002294;28;20071;-84
2023/03/30 06:59:04;;;;;;;8.18;2.00;;;12.30;99.90;;;;;;5027662;28;20045;-85
2023/03/30 07:01:32;;;;;;;12.18;1.90;;;12.30;99.90;;;;;;5010179;28;20053;-84
2023/03/30 07:04:01;;;;;;;9.00;1.80;;;12.30;99.90;;;;;;4993944;28;20049;-84
2023/03/30 07:06:36;;;;;;;9.35;1.98;;;12.30;99.90;;;;;;5010475;28;20107;-83
2023/03/30 07:09:04;;;;;;;10.35;2.03;;;12.30;99.90;;;;;;5007820;28;20512;-84
2023/03/30 07:11:32;;;;;;;9.82;1.80;;;12.20;99.90;;;;;;5009600;28;20455;-83
2023/03/30 07:14:00;;;;;;;7.30;2.08;;;12.30;99.90;;;;;;5024949;28;20612;-84
2023/03/30 07:16:26;;;;;;;13.52;3.00;;;12.20;99.90;;;;;;5028345;28;20167;-84
2023/03/30 07:18:51;;;;;;;16.48;4.75;;;12.20;99.90;;;;;;4994214;28;20542;-84
2023/03/30 07:21:19;;;;;;;17.40;3.33;;;12.20;99.90;;;;;;5025527;28;20053;-83
2023/03/30 07:23:44;;;;;;;11.30;2.55;;;12.10;99.90;;;;;;5007926;28;20201;-84
2023/03/30 07:26:10;;;;;;;13.87;3.37;;;12.00;99.90;;;;;;5024447;28;20041;-84
2023/03/30 07:28:39;;;;;;;14.30;3.63;;;12.10;99.90;;;;;;5005960;28;20049;-84
2023/03/30 07:31:12;;;;;;;11.95;2.67;;;11.90;99.90;;;;;;4994065;28;20540;-85
2023/03/30 07:33:38;;;;;;;8.15;2.63;;;12.00;99.90;;;;;;5020631;28;20050;-84
2023/03/30 07:36:04;;;;;;;16.42;2.88;;;12.10;99.90;;;;;;5024739;28;20091;-84
2023/03/30 07:38:33;;;;;;;;;;;12.00;99.90;;;;;;4994281;28;20080;-83
2023/03/30 07:45:38;;;;;;;15.10;2.72;;;11.90;99.90;;;;;;4953311;28;20522;-84
2023/03/30 07:56:51;;;;;;;10.80;2.75;;;11.80;99.90;;;;;;4878610;29;20045;-85
2023/03/30 07:59:58;;;;;;;11.50;2.78;;;11.80;99.90;;;;;;4876390;29;20048;-84
2023/03/30 08:02:30;;;;;;;11.48;3.30;;;11.80;99.90;;;;;;4899083;29;20123;-86
2023/03/30 08:04:59;;;;;;;21.52;3.20;;;11.70;99.90;;;;;;4951066;28;20081;-86
2023/03/30 08:11:43;;;;;;;;;;;;;;;;;;;;;
2023/03/30 08:15:00;;;;;;;18.73;4.70;;;11.60;99.90;;;;;;4945448;29;20054;-86
2023/03/30 08:18:25;;;;;;;22.60;3.15;;;11.50;99.90;;;;;;4956398;28;20052;-88
2023/03/30 08:21:13;;;;;;;18.42;3.22;;;11.50;99.90;;;;;;4877422;29;20104;-84
2023/03/30 08:23:42;;;;;;;14.82;3.70;;;11.50;99.90;;;;;;4881190;29;20046;-84
2023/03/30 08:26:18;;;;;;;17.50;2.80;;;11.50;99.90;;;;;;4920755;29;20056;-83
2023/03/30 08:28:58;;;;;;;17.58;3.60;;;11.50;99.90;;;;;;4909661;29;20471;-84
2023/03/30 08:31:31;;;;;;;19.27;2.47;;;11.50;99.90;;;;;;4947949;29;20130;-84
2023/03/30 08:34:03;;;;;;;18.17;4.22;;;11.50;99.90;;;;;;4934173;29;20054;-84
2023/03/30 08:36:34;;;;;;;18.42;3.70;;;11.50;99.90;;;;;;4933101;29;20055;-84
2023/03/30 08:39:01;;;;;;;12.88;3.25;;;11.60;99.90;;;;;;4934067;29;20047;-84
2023/03/30 08:42:11;;;;;;;11.77;2.70;;;11.60;99.90;;;;;;4952472;28;20039;-84
2023/03/30 08:44:49;;;;;;;16.08;3.33;;;11.70;99.90;;;;;;4942247;29;20088;-84
2023/03/30 08:47:29;;;;;;;21.42;4.30;;;11.70;99.90;;;;;;4927291;29;20450;-83
2023/03/30 08:50:29;;;;;;;13.23;2.88;;;11.70;99.90;;;;;;4932724;29;20090;-83
2023/03/30 08:53:13;;;;;;;18.92;4.38;;;12.00;99.90;;;;;;4931764;29;20540;-82
2023/03/30 08:55:54;;;;;;;15.33;3.33;;;12.00;99.90;;;;;;4963502;28;20051;-85
2023/03/30 08:58:54;;;;;;;15.88;3.72;;;12.10;99.90;;;;;;4963334;28;20043;-84
2023/03/30 09:02:06;;;;;;;14.50;3.22;;;12.20;99.90;;;;;;4925943;29;20118;-85
2023/03/30 09:04:56;;;;;;;20.63;4.47;;;12.40;99.90;;;;;;4931896;29;20063;-85
2023/03/30 09:08:18;;;;;;;12.25;2.97;;;12.30;99.90;;;;;;4930131;29;20051;-87
2023/03/30 09:11:26;;;;;;;20.42;2.85;;;12.40;99.90;;;;;;4899930;29;20051;-84
2023/03/30 09:14:09;;;;;;;17.20;2.65;;;12.50;99.90;;;;;;4853454;29;20101;-83
2023/03/30 09:17:32;;;;;;;14.88;2.55;;;12.50;99.90;;;;;;4853227;29;20169;-85
2023/03/30 09:20:28;;;;;;;13.95;2.90;;;12.50;99.90;;;;;;4927828;28;20514;-83
2023/03/30 09:23:17;;;;;;;20.70;3.47;;;12.60;99.90;;;;;;4934254;29;20059;-86
2023/03/30 09:26:49;;;;;;;16.17;3.63;;;12.60;99.90;;;;;;4911469;29;20083;-87
2023/03/30 09:29:37;;;;;;;17.17;2.53;;;12.60;99.90;;;;;;4905618;29;20047;-84
2023/03/30 09:32:38;;;;;;;;;;;;;;;;;;;;;
2023/03/30 09:35:45;;;;;;;11.32;2.35;;;12.60;99.90;;;;;;4944863;29;20051;-85
2023/03/30 09:39:03;;;;;;;15.73;3.50;;;12.60;99.90;;;;;;4945934;28;20240;-86
2023/03/30 09:42:07;;;;;;;16.95;3.35;;;12.50;99.90;;;;;;4942588;29;20051;-85
2023/03/30 09:45:04;;;;;;;15.05;2.60;;;12.50;99.90;;;;;;4942876;29;20198;-84
2023/03/30 09:47:48;;;;;;;8.95;3.08;;;12.50;99.90;;;;;;4965008;28;20444;-85
2023/03/30 09:50:41;;;;;;;9.80;2.42;;;12.50;99.90;;;;;;4943158;28;20119;-86
2023/03/30 09:53:28;;;;;;;13.75;2.65;;;12.50;99.90;;;;;;4933800;29;20058;-83
2023/03/30 09:56:15;;;;;;;13.10;2.53;;;12.60;99.90;;;;;;4950548;28;20110;-84
2023/03/30 09:59:35;;;;;;;;;;;;;;;;;;;;;
2023/03/30 10:02:11;;;;;;;12.25;2.53;;;12.60;99.90;;;;;;4971547;28;20417;-84
2023/03/30 10:04:59;;;;;;;16.20;2.17;;;12.60;99.90;;;;;;4950543;29;20039;-84
2023/03/30 10:11:25;;;;;;;9.48;2.00;;;12.50;99.90;;;;;;4947997;28;20138;-84
2023/03/30 10:14:32;;;;;;;19.70;3.67;;;12.50;99.90;;;;;;4963801;28;20058;-85
2023/03/30 10:17:36;;;;;;;21.95;3.45;;;12.50;99.90;;;;;;4951117;28;20058;-82
2023/03/30 10:20:23;;;;;;;18.50;3.10;;;12.50;99.90;;;;;;4989164;23;20136;-69
2023/03/30 10:23:01;;;;;;;22.52;2.90;;;12.60;99.90;;;;;;4985470;28;20129;-68
2023/03/30 10:25:30;;;;;;;16.17;3.97;;;12.50;99.90;;;;;;4984643;28;20085;-68
2023/03/30 10:28:01;;;;;;;19.80;3.40;;;12.60;99.90;;;;;;4985224;28;20062;-68
2023/03/30 10:30:28;;;;;;;12.35;3.00;;;12.60;99.90;;;;;;4985148;28;20042;-68
2023/03/30 10:32:58;;;;;;;;;;;12.70;99.90;;;;;;4986950;28;20050;-68
2023/03/30 10:35:36;;;;;;;14.63;2.50;;;12.60;99.90;;;;;;4978676;28;20515;-68
2023/03/30 10:38:04;;;;;;;12.27;2.53;;;12.70;99.90;;;;;;4980646;28;20149;-67
2023/03/30 10:40:39;;;;;;;13.07;3.75;;;12.70;99.90;;;;;;4986443;28;20042;-68
2023/03/30 10:43:12;;;;;;;15.45;2.45;;;12.70;99.90;;;;;;4968075;28;20130;-68
2023/03/30 10:45:46;;;;;;;16.38;2.60;;;12.80;99.90;;;;;;4979992;28;20137;-67
2023/03/30 10:48:30;;;;;;;22.77;3.90;;;12.80;99.90;;;;;;4983534;28;20105;-68
2023/03/30 10:51:09;;;;;;;15.77;2.88;;;12.90;99.90;;;;;;4982076;28;20220;-67
2023/03/30 10:54:06;;;;;;;17.58;2.60;;;13.00;99.90;;;;;;4982783;28;20331;-68
2023/03/30 10:56:50;;;;;;;14.40;2.88;;;13.10;99.90;;;;;;4985603;28;20101;-68
2023/03/30 10:59:36;;;;;;;14.48;2.83;;;13.20;99.90;;;;;;4984326;28;20530;-68
2023/03/30 11:02:50;;;;;;;16.67;2.75;;;13.20;99.90;;;;;;4985859;28;20058;-68
2023/03/30 11:05:21;;;;;;;16.45;2.75;;;13.30;99.90;;;;;;4982289;28;20417;-68
2023/03/30 11:08:10;;;;;;;20.63;3.17;;;13.40;99.90;;;;;;4977648;28;20528;-68
2023/03/30 11:10:53;;;;;;;20.20;2.53;;;13.50;99.90;;;;;;4984476;28;20041;-68
2023/03/30 11:13:27;;;;;;;9.32;2.83;;;13.60;99.90;;;;;;4962412;28;20173;-68
2023/03/30 11:16:00;;;;;;;11.63;1.90;;;13.60;99.90;;;;;;4968551;28;20042;-68
2023/03/30 11:18:41;;;;;;;13.75;2.75;;;13.60;99.90;;;;;;4980155;28;20560;-68
2023/03/30 11:21:28;;;;;;;15.38;3.35;;;13.70;99.90;;;;;;5000691;28;20514;-69
2023/03/30 11:23:58;;;;;;;20.95;2.58;;;13.90;99.90;;;;;;4981391;28;20124;-68
2023/03/30 11:26:39;;;;;;;15.98;2.70;;;14.00;99.90;;;;;;4982569;28;20575;-68
2023/03/30 11:29:25;;;;;;;13.80;2.40;;;14.00;99.90;;;;;;4967850;28;20058;-68
2023/03/30 11:32:13;;;;;;;18.23;3.38;;;14.10;99.90;;;;;;4979179;28;20211;-67
2023/03/30 11:34:47;;;;;;;;;;;14.10;99.90;;;;;;4983237;28;20042;-68
2023/03/30 11:37:29;;;;;;;11.18;2.60;;;14.20;99.90;;;;;;4981956;28;19922;-68
2023/03/30 11:40:27;;;;;;;12.73;2.63;;;14.30;99.90;;;;;;4981600;28;20062;-68
2023/03/30 11:42:54;;;;;;;19.63;3.08;;;14.30;99.90;;;;;;4980348;28;20051;-68
2023/03/30 11:45:27;;;;;;;;;;;14.40;99.90;;;;;;4984436;28;20353;-68
2023/03/30 11:48:19;;;;;;;12.13;2.38;;;14.40;99.90;;;;;;4981176;28;19917;-67
2023/03/30 11:50:56;;;;;;;12.55;1.98;;;14.50;99.90;;;;;;4997180;28;20129;-68
2023/03/30 11:53:43;;;;;;;19.55;2.80;;;14.50;99.90;;;;;;4978572;28;20054;-68
2023/03/30 11:56:37;;;;;;;15.48;2.30;;;14.40;99.90;;;;;;4971199;28;20136;-68
2023/03/30 11:59:05;;;;;;;13.98;2.72;;;14.60;99.90;;;;;;4982273;28;20436;-67
2023/03/30 12:02:09;;;;;;;23.30;2.95;;;14.60;99.90;;;;;;4964922;28;20034;-68
2023/03/30 12:05:13;;;;;;;20.92;3.22;;;14.50;99.90;;;;;;4939034;28;20043;-67
2023/03/30 12:07:51;;;;;;;14.60;2.55;;;14.50;99.90;;;;;;4979913;28;20050;-68
2023/03/30 12:10:23;;;;;;;15.98;4.22;;;14.50;99.90;;;;;;4982613;28;20050;-68
2023/03/30 12:12:52;;;;;;;15.07;2.30;;;14.60;99.90;;;;;;4985350;28;20657;-68
2023/03/30 12:15:40;;;;;;;12.32;2.55;;;14.80;99.90;;;;;;4983770;28;20125;-68
2023/03/30 12:18:11;;;;;;;;;;;14.80;99.90;;;;;;4986948;28;20578;-68
2023/03/30 12:20:45;;;;;;;23.52;5.82;;;14.90;99.90;;;;;;4999712;28;19921;-68
2023/03/30 12:23:45;;;;;;;24.30;8.18;;;15.00;99.90;;;;;;4985820;28;20103;-67
2023/03/30 12:26:28;;;;;;;13.13;3.15;;;15.10;99.90;;;;;;4978617;28;20054;-68
2023/03/30 12:29:11;;;;;;;19.85;3.13;;;15.30;99.90;;;;;;4970868;28;20120;-68
2023/03/30 12:32:02;;;;;;;16.05;2.90;;;15.50;99.90;;;;;;4974589;28;20408;-68
2023/03/30 12:34:35;;;;;;;24.60;3.65;;;15.50;99.90;;;;;;4982344;28;20049;-68
2023/03/30 12:37:03;;;;;;;13.35;3.15;;;15.40;99.90;;;;;;4979861;28;20100;-68
2023/03/30 12:39:35;;;;;;;16.02;2.97;;;15.20;99.90;;;;;;4979944;28;20066;-68
2023/03/30 12:42:25;;;;;;;18.05;2.97;;;15.00;99.90;;;;;;4989030;28;20049;-68
2023/03/30 12:45:20;;;;;;;17.73;4.40;;;14.90;99.90;;;;;;4969663;28;20125;-68
2023/03/30 12:47:46;;;;;;;16.25;2.85;;;14.90;99.90;;;;;;4978543;28;20126;-68
2023/03/30 12:50:33;;;;;;;17.98;3.10;;;15.00;99.90;;;;;;4993145;28;20042;-68
2023/03/30 12:53:17;;;;;;;18.00;4.40;;;15.00;99.90;;;;;;4987064;28;20447;-68
2023/03/30 12:56:04;;;;;;;16.73;4.00;;;15.10;99.90;;;;;;4983472;28;20272;-68
2023/03/30 12:58:45;;;;;;;16.97;3.17;;;15.30;99.90;;;;;;4982874;28;20914;-68
2023/03/30 13:01:24;;;;;;;10.30;2.30;;;15.40;99.90;;;;;;4983329;28;20145;-68
2023/03/30 13:03:51;;;;;;;18.95;3.10;;;15.50;99.90;;;;;;4980160;28;20142;-68
2023/03/30 13:06:20;;;;;;;15.93;2.80;;;15.60;99.90;;;;;;4981909;28;20058;-68
2023/03/30 13:08:45;;;;;;;22.33;3.47;;;15.80;99.90;;;;;;4988951;28;20046;-70
2023/03/30 13:11:15;;;;;;;18.05;2.85;;;15.90;99.90;;;;;;4980402;28;20073;-72
2023/03/30 13:13:55;;;;;;;12.02;2.38;;;16.00;99.90;;;;;;4978859;28;20120;-68
2023/03/30 13:16:54;;;;;;;17.70;2.88;;;15.90;99.90;;;;;;4950482;28;20480;-68
2023/03/30 13:19:25;;;;;;;17.38;3.17;;;15.80;99.90;;;;;;4972088;28;20168;-68
2023/03/30 13:22:27;;;;;;;16.45;2.58;;;15.90;99.90;;;;;;4970596;28;20057;-68
2023/03/30 13:25:02;;;;;;;24.17;3.42;;;15.90;99.90;;;;;;4963403;28;20460;-68
2023/03/30 13:27:32;;;;;;;17.10;3.00;;;15.90;99.90;;;;;;4984393;28;20567;-68
2023/03/30 13:30:10;;;;;;;14.43;3.08;;;15.90;99.90;;;;;;4978037;28;20046;-68
2023/03/30 13:32:42;;;;;;;11.65;2.47;;;16.10;99.90;;;;;;4998256;28;20050;-67
2023/03/30 13:35:07;;;;;;;13.82;2.50;;;16.30;99.90;;;;;;4984031;28;20042;-67
2023/03/30 13:37:54;;;;;;;15.60;2.95;;;16.30;99.90;;;;;;4980937;28;20112;-68
2023/03/30 13:40:27;;;;;;;10.25;2.78;;;16.30;99.90;;;;;;4990669;23;20046;-83
2023/03/30 13:43:19;;;;;;;18.40;2.95;;;16.30;99.90;;;;;;4967375;28;20043;-85
2023/03/30 13:46:19;;;;;;;13.45;2.75;;;16.20;99.90;;;;;;4970121;28;20042;-84
2023/03/30 13:49:16;;;;;;;14.30;2.88;;;16.10;99.90;;;;;;4964090;28;20413;-84
2023/03/30 13:51:42;;;;;;;17.40;3.03;;;16.10;99.90;;;;;;5000559;28;20105;-83
2023/03/30 13:54:20;;;;;;;15.40;3.05;;;15.90;99.90;;;;;;4965151;28;20035;-82
2023/03/30 13:57:00;;;;;;;17.50;2.67;;;15.80;99.90;;;;;;4992338;28;20038;-84
2023/03/30 13:59:30;;;;;;;17.67;3.17;;;15.80;99.90;;;;;;4968016;28;20138;-85
2023/03/30 14:01:59;;;;;;;19.63;3.15;;;15.80;99.90;;;;;;4940686;28;20090;-85
2023/03/30 14:04:40;;;;;;;15.65;2.45;;;16.00;99.90;;;;;;4994949;28;20142;-84